createdAt,value
2018-07-16T00:00:32.974Z,81.90
2018-07-16T00:03:01.518Z,82.50
2018-07-16T00:05:30.082Z,82.80
2018-07-16T00:07:58.704Z,82.70
2018-07-16T00:10:27.244Z,82.30
2018-07-16T00:12:55.848Z,81.90
2018-07-16T00:15:24.502Z,82.10
2018-07-16T00:17:53.148Z,82.90
2018-07-16T00:20:21.722Z,83.60
2018-07-16T00:22:50.330Z,83.60
2018-07-16T00:25:18.888Z,83.70
2018-07-16T00:27:47.488Z,83.60
2018-07-16T00:30:16.818Z,83.20
2018-07-16T00:32:45.412Z,83.70
2018-07-16T00:35:14.030Z,83.80
2018-07-16T00:37:42.654Z,83.70
2018-07-16T00:40:11.296Z,83.90
2018-07-16T00:42:39.915Z,84.70
2018-07-16T00:45:08.599Z,85.00
2018-07-16T00:47:37.258Z,85.50
2018-07-16T00:50:05.881Z,85.90
2018-07-16T00:52:34.473Z,85.70
2018-07-16T00:55:03.045Z,86.00
2018-07-16T00:57:31.676Z,86.60
2018-07-16T01:00:00.330Z,87.40
2018-07-16T01:02:28.888Z,87.10
2018-07-16T01:04:57.516Z,87.00
2018-07-16T01:07:26.224Z,87.10
2018-07-16T01:09:54.853Z,87.50
2018-07-16T01:12:23.504Z,87.20
2018-07-16T01:14:52.127Z,87.80
2018-07-16T01:17:20.655Z,87.90
2018-07-16T01:19:49.243Z,88.10
2018-07-16T01:22:17.936Z,88.10
2018-07-16T01:24:46.693Z,88.30
2018-07-16T01:27:15.395Z,88.00
2018-07-16T01:29:44.057Z,88.50
2018-07-16T01:32:13.147Z,88.80
2018-07-16T01:34:41.755Z,89.20
2018-07-16T01:37:10.353Z,89.40
2018-07-16T01:39:39.003Z,89.70
2018-07-16T01:42:08.371Z,90.10
2018-07-16T01:44:37.107Z,90.00
2018-07-16T01:47:05.639Z,90.00
2018-07-16T01:49:34.209Z,90.00
2018-07-16T01:52:02.871Z,90.10
2018-07-16T01:54:31.575Z,90.10
2018-07-16T01:57:00.199Z,90.30
2018-07-16T01:59:28.779Z,90.30
2018-07-16T02:01:57.533Z,90.30
2018-07-16T02:04:26.107Z,90.10
2018-07-16T02:06:54.803Z,90.30
2018-07-16T02:09:25.491Z,90.20
2018-07-16T02:11:54.257Z,90.20
2018-07-16T02:14:22.833Z,90.30
2018-07-16T02:16:51.452Z,90.30
2018-07-16T02:19:20.032Z,90.40
2018-07-16T02:21:48.783Z,90.40
2018-07-16T02:24:17.501Z,90.60
2018-07-16T02:26:46.191Z,90.40
2018-07-16T02:29:15.004Z,90.30
2018-07-16T02:31:43.801Z,90.30
2018-07-16T02:34:12.490Z,90.30
2018-07-16T02:36:41.227Z,90.30
2018-07-16T02:39:09.856Z,90.40
2018-07-16T02:41:38.638Z,90.50
2018-07-16T02:44:07.266Z,90.70
2018-07-16T02:46:35.933Z,90.90
2018-07-16T02:49:04.758Z,91.40
2018-07-16T02:51:33.540Z,91.10
2018-07-16T02:54:02.154Z,91.50
2018-07-16T02:56:31.097Z,91.40
2018-07-16T02:58:59.840Z,91.70
2018-07-16T03:01:28.741Z,91.70
2018-07-16T03:03:57.562Z,91.50
2018-07-16T03:06:26.310Z,91.50
2018-07-16T03:08:55.151Z,91.70
2018-07-16T03:11:23.924Z,91.70
2018-07-16T03:16:20.968Z,91.80
2018-07-16T03:18:49.700Z,91.90
2018-07-16T03:21:18.360Z,91.60
2018-07-16T03:23:47.124Z,91.70
2018-07-16T03:26:15.788Z,91.80
2018-07-16T03:28:44.413Z,91.80
2018-07-16T03:31:13.072Z,91.80
2018-07-16T03:33:41.827Z,91.80
2018-07-16T03:36:10.550Z,91.90
2018-07-16T03:38:39.349Z,92.00
2018-07-16T03:41:08.185Z,92.10
2018-07-16T03:43:36.923Z,91.90
2018-07-16T03:46:05.809Z,91.80
2018-07-16T03:48:34.487Z,91.70
2018-07-16T03:51:04.740Z,91.70
2018-07-16T03:53:33.373Z,91.60
2018-07-16T03:56:02.135Z,91.60
2018-07-16T03:58:30.708Z,91.60
2018-07-16T04:00:59.463Z,91.50
2018-07-16T04:03:28.214Z,91.40
2018-07-16T04:05:56.963Z,91.30
2018-07-16T04:08:25.581Z,91.30
2018-07-16T04:10:54.389Z,91.20
2018-07-16T04:13:23.221Z,91.10
2018-07-16T04:15:52.127Z,91.00
2018-07-16T04:18:21.411Z,90.80
2018-07-16T04:20:50.779Z,90.70
2018-07-16T04:23:19.843Z,90.50
2018-07-16T04:25:48.640Z,91.00
2018-07-16T04:28:17.295Z,90.80
2018-07-16T04:30:45.908Z,90.70
2018-07-16T04:33:14.525Z,90.70
2018-07-16T04:35:43.137Z,90.60
2018-07-16T04:38:11.879Z,90.60
2018-07-16T04:40:40.475Z,90.90
2018-07-16T04:43:09.111Z,90.60
2018-07-16T04:45:37.763Z,90.30
2018-07-16T04:48:06.407Z,90.20
2018-07-16T04:50:34.930Z,90.20
2018-07-16T04:53:03.650Z,90.20
2018-07-16T04:55:32.323Z,90.20
2018-07-16T04:58:00.873Z,89.60
2018-07-16T05:00:29.649Z,89.30
2018-07-16T05:02:59.501Z,89.60
2018-07-16T05:05:28.206Z,89.60
2018-07-16T05:07:57.153Z,89.70
2018-07-16T05:10:25.827Z,89.50
2018-07-16T05:12:54.547Z,89.40
2018-07-16T05:15:23.109Z,89.20
2018-07-16T05:17:51.817Z,89.20
2018-07-16T05:20:20.609Z,88.60
2018-07-16T05:22:49.251Z,88.90
2018-07-16T05:25:18.009Z,88.90
2018-07-16T05:27:46.617Z,88.00
2018-07-16T05:30:15.476Z,86.80
2018-07-16T05:32:44.314Z,86.60
2018-07-16T05:35:12.731Z,87.10
2018-07-16T05:37:41.354Z,86.80
2018-07-16T05:40:09.909Z,87.60
2018-07-16T05:42:38.496Z,88.20
2018-07-16T05:45:07.136Z,87.90
2018-07-16T05:47:35.746Z,87.20
2018-07-16T05:50:04.392Z,88.30
2018-07-16T05:52:34.563Z,88.30
2018-07-16T05:55:03.137Z,88.40
2018-07-16T05:57:31.635Z,88.30
2018-07-16T06:00:00.180Z,86.60
2018-07-16T06:02:28.696Z,86.20
2018-07-16T06:04:57.223Z,86.40
2018-07-16T06:07:25.709Z,86.80
2018-07-16T06:09:54.342Z,86.20
2018-07-16T06:14:51.022Z,84.90
2018-07-16T06:17:19.570Z,79.30
2018-07-16T06:19:48.064Z,79.60
2018-07-16T06:22:16.612Z,78.90
2018-07-16T06:24:45.175Z,78.60
2018-07-16T06:27:13.679Z,80.20
2018-07-16T06:29:42.164Z,81.00
2018-07-16T06:32:10.682Z,80.30
2018-07-16T06:34:39.147Z,78.50
2018-07-16T06:37:07.908Z,78.00
2018-07-16T06:39:36.460Z,78.90
2018-07-16T06:42:04.923Z,79.50
2018-07-16T06:44:33.426Z,79.60
2018-07-16T06:47:01.953Z,78.30
2018-07-16T06:49:30.419Z,77.90
2018-07-16T06:54:32.679Z,77.30
2018-07-16T06:57:01.150Z,76.40
2018-07-16T06:59:29.980Z,76.70
2018-07-16T07:01:58.476Z,75.30
2018-07-16T07:04:27.003Z,75.50
2018-07-16T07:06:55.493Z,75.20
2018-07-16T07:09:24.012Z,73.10
2018-07-16T07:11:52.511Z,72.70
2018-07-16T07:16:49.256Z,72.40
2018-07-16T07:19:17.738Z,71.10
2018-07-16T07:21:46.267Z,69.00
2018-07-16T07:24:14.755Z,68.20
2018-07-16T07:26:43.305Z,69.30
2018-07-16T07:29:11.814Z,71.00
2018-07-16T07:31:40.905Z,70.30
2018-07-16T07:34:09.415Z,70.30
2018-07-16T07:39:07.199Z,67.50
2018-07-16T07:41:35.763Z,69.40
2018-07-16T07:44:04.320Z,68.30
2018-07-16T07:46:32.879Z,68.30
2018-07-16T07:49:01.699Z,67.50
2018-07-16T07:51:30.967Z,67.80
2018-07-16T07:53:59.476Z,67.90
2018-07-16T07:56:28.054Z,66.80
2018-07-16T07:58:56.575Z,66.80
2018-07-16T08:01:25.143Z,67.00
2018-07-16T08:03:53.644Z,66.40
2018-07-16T08:06:22.183Z,66.60
2018-07-16T08:08:50.691Z,67.30
2018-07-16T08:11:19.243Z,67.40
2018-07-16T08:13:47.864Z,65.00
2018-07-16T08:16:16.363Z,64.50
2018-07-16T08:18:44.922Z,66.50
2018-07-16T08:21:13.508Z,66.50
2018-07-16T08:23:42.134Z,65.30
2018-07-16T08:26:10.683Z,65.80
2018-07-16T08:28:39.215Z,66.80
2018-07-16T08:31:07.725Z,67.70
2018-07-16T08:33:36.383Z,68.00
2018-07-16T08:36:04.932Z,68.10
2018-07-16T08:38:33.479Z,68.70
2018-07-16T08:41:01.995Z,66.30
2018-07-16T08:43:30.513Z,66.20
2018-07-16T08:45:59.095Z,65.90
2018-07-16T08:48:27.651Z,65.40
2018-07-16T08:50:56.148Z,65.10
2018-07-16T08:53:25.251Z,64.40
2018-07-16T08:55:53.827Z,64.60
2018-07-16T08:58:22.379Z,66.30
2018-07-16T09:00:50.986Z,63.80
2018-07-16T09:03:19.602Z,65.70
2018-07-16T09:05:52.327Z,65.40
2018-07-16T09:08:20.830Z,65.90
2018-07-16T09:10:49.333Z,66.30
2018-07-16T09:13:17.910Z,65.20
2018-07-16T09:15:46.359Z,66.30
2018-07-16T09:18:14.863Z,66.50
2018-07-16T09:20:43.392Z,67.30
2018-07-16T09:23:11.905Z,68.40
2018-07-16T09:25:40.455Z,66.30
2018-07-16T09:28:08.914Z,64.70
2018-07-16T09:30:39.610Z,64.40
2018-07-16T09:33:08.130Z,63.50
2018-07-16T09:35:36.674Z,62.70
2018-07-16T09:38:05.182Z,59.20
2018-07-16T09:40:33.688Z,60.20
2018-07-16T09:43:02.151Z,59.30
2018-07-16T09:45:30.674Z,59.20
2018-07-16T09:47:59.260Z,60.00
2018-07-16T09:50:27.850Z,59.90
2018-07-16T09:52:56.362Z,59.30
2018-07-16T09:55:24.886Z,61.40
2018-07-16T09:57:53.422Z,59.70
2018-07-16T10:00:27.290Z,58.30
2018-07-16T10:02:55.813Z,57.40
2018-07-16T10:05:24.354Z,57.50
2018-07-16T10:07:52.905Z,58.10
2018-07-16T10:10:21.468Z,57.20
2018-07-16T10:12:50.057Z,58.40
2018-07-16T10:15:18.622Z,58.50
2018-07-16T10:17:47.190Z,58.80
2018-07-16T10:20:15.688Z,57.10
2018-07-16T10:22:44.323Z,57.90
2018-07-16T10:25:12.876Z,56.00
2018-07-16T10:30:12.466Z,56.00
2018-07-16T10:32:41.029Z,55.60
2018-07-16T10:35:09.555Z,55.90
2018-07-16T10:37:38.170Z,55.90
2018-07-16T10:40:06.629Z,55.60
2018-07-16T10:45:03.828Z,56.20
2018-07-16T10:50:00.543Z,55.80
2018-07-16T10:52:29.132Z,57.70
2018-07-16T10:54:57.699Z,57.30
2018-07-16T10:57:26.323Z,56.50
2018-07-16T10:59:54.951Z,55.20
2018-07-16T11:02:23.629Z,56.00
2018-07-16T11:04:52.146Z,55.00
2018-07-16T11:07:20.652Z,56.00
2018-07-16T11:09:49.247Z,56.40
2018-07-16T11:12:17.734Z,53.70
2018-07-16T11:14:46.302Z,54.00
2018-07-16T11:17:14.865Z,55.00
2018-07-16T11:19:43.413Z,54.30
2018-07-16T11:22:11.938Z,54.10
2018-07-16T11:24:40.503Z,53.00
2018-07-16T11:27:09.007Z,52.50
2018-07-16T11:29:37.575Z,52.10
2018-07-16T11:32:06.086Z,51.90
2018-07-16T11:34:34.643Z,52.20
2018-07-16T11:37:03.324Z,52.10
2018-07-16T11:39:31.933Z,51.50
2018-07-16T11:42:00.458Z,50.00
2018-07-16T11:44:29.038Z,50.40
2018-07-16T11:46:57.581Z,50.00
2018-07-16T11:49:26.467Z,49.70
2018-07-16T11:51:55.059Z,47.70
2018-07-16T11:54:23.548Z,49.90
2018-07-16T11:56:52.064Z,48.10
2018-07-16T11:59:20.641Z,47.00
2018-07-16T12:01:49.276Z,47.70
2018-07-16T12:04:17.720Z,49.10
2018-07-16T12:06:46.262Z,48.00
2018-07-16T12:09:14.780Z,48.00
2018-07-16T12:11:43.318Z,48.40
2018-07-16T12:14:12.052Z,49.10
2018-07-16T12:16:40.623Z,48.90
2018-07-16T12:19:09.135Z,49.20
2018-07-16T12:21:37.686Z,48.40
2018-07-16T12:24:06.538Z,47.60
2018-07-16T12:26:35.070Z,47.80
2018-07-16T12:29:03.848Z,48.30
2018-07-16T12:31:32.378Z,48.60
2018-07-16T12:34:00.862Z,50.00
2018-07-16T12:36:29.472Z,49.10
2018-07-16T12:38:57.965Z,49.00
2018-07-16T12:41:26.601Z,50.00
2018-07-16T12:43:55.070Z,51.00
2018-07-16T12:46:23.571Z,49.10
2018-07-16T12:48:52.038Z,49.30
2018-07-16T12:51:20.522Z,50.30
2018-07-16T12:53:49.089Z,50.00
2018-07-16T12:56:17.598Z,48.60
2018-07-16T12:58:46.119Z,48.20
2018-07-16T13:01:14.683Z,47.80
2018-07-16T13:03:43.247Z,48.50
2018-07-16T13:06:11.742Z,50.50
2018-07-16T13:08:40.298Z,50.70
2018-07-16T13:11:08.806Z,51.20
2018-07-16T13:13:37.530Z,51.50
2018-07-16T13:16:06.035Z,51.40
2018-07-16T13:18:34.536Z,51.40
2018-07-16T13:21:03.081Z,53.30
2018-07-16T13:23:31.628Z,54.30
2018-07-16T13:26:00.096Z,56.70
2018-07-16T13:28:28.653Z,58.90
2018-07-16T13:30:57.382Z,62.50
2018-07-16T13:33:26.005Z,63.00
2018-07-16T13:35:54.554Z,67.00
2018-07-16T13:38:23.131Z,72.10
2018-07-16T13:40:51.631Z,72.10
2018-07-16T13:43:20.234Z,75.70
2018-07-16T13:48:16.990Z,78.10
2018-07-16T13:50:45.588Z,80.40
2018-07-16T13:53:14.113Z,81.80
2018-07-16T13:55:42.758Z,82.30
2018-07-16T13:58:11.346Z,82.10
2018-07-16T14:00:39.986Z,84.10
2018-07-16T14:03:08.541Z,86.60
2018-07-16T14:05:37.636Z,87.60
2018-07-16T14:08:06.219Z,88.90
2018-07-16T14:10:34.800Z,89.80
2018-07-16T14:13:03.388Z,90.30
2018-07-16T14:15:32.045Z,91.00
2018-07-16T14:18:00.560Z,91.80
2018-07-16T14:20:29.177Z,91.90
2018-07-16T14:22:57.655Z,92.20
2018-07-16T14:25:26.199Z,92.00
2018-07-16T14:27:54.719Z,92.40
2018-07-16T14:30:23.258Z,93.50
2018-07-16T14:32:51.820Z,94.00
2018-07-16T14:35:20.413Z,94.20
2018-07-16T14:37:48.904Z,94.50
2018-07-16T14:40:17.580Z,94.70
2018-07-16T14:42:46.089Z,93.90
2018-07-16T14:45:14.829Z,93.80
2018-07-16T14:47:43.424Z,93.60
2018-07-16T14:50:12.247Z,94.40
2018-07-16T14:52:40.851Z,94.60
2018-07-16T14:55:09.402Z,95.00
2018-07-16T14:57:37.951Z,95.00
2018-07-16T15:00:06.494Z,95.00
2018-07-16T15:02:35.323Z,95.10
2018-07-16T15:05:03.867Z,95.00
2018-07-16T15:07:32.435Z,95.30
2018-07-16T15:10:00.988Z,95.70
2018-07-16T15:12:29.543Z,95.80
2018-07-16T15:14:58.095Z,96.10
2018-07-16T15:17:26.608Z,96.20
2018-07-16T15:19:55.248Z,96.40
2018-07-16T15:22:23.749Z,96.20
2018-07-16T15:24:52.287Z,96.20
2018-07-16T15:27:20.796Z,96.60
2018-07-16T15:29:49.458Z,96.40
2018-07-16T15:32:17.889Z,96.80
2018-07-16T15:34:46.546Z,96.60
2018-07-16T15:37:15.042Z,97.20
2018-07-16T15:39:43.594Z,97.40
2018-07-16T15:42:12.249Z,97.50
2018-07-16T15:44:41.140Z,97.40
2018-07-16T15:49:38.014Z,97.20
2018-07-16T15:52:06.651Z,96.60
2018-07-16T15:54:35.207Z,95.90
2018-07-16T15:57:03.788Z,95.40
2018-07-16T15:59:32.299Z,94.70
2018-07-16T16:02:01.077Z,94.70
2018-07-16T16:04:29.584Z,94.50
2018-07-16T16:06:58.187Z,94.70
2018-07-16T16:09:26.740Z,94.70
2018-07-16T16:11:55.305Z,94.80
2018-07-16T16:14:23.850Z,94.80
2018-07-16T16:16:52.383Z,94.60
2018-07-16T16:19:20.913Z,95.00
2018-07-16T16:21:49.447Z,94.20
2018-07-16T16:24:17.927Z,94.00
2018-07-16T16:26:46.475Z,94.30
2018-07-16T16:29:14.938Z,94.40
2018-07-16T16:31:43.483Z,94.20
2018-07-16T16:34:12.039Z,94.60
2018-07-16T16:36:40.674Z,94.20
2018-07-16T16:39:10.551Z,94.10
2018-07-16T16:41:39.029Z,93.80
2018-07-16T16:44:07.603Z,93.20
2018-07-16T16:46:36.561Z,93.40
2018-07-16T16:49:05.237Z,93.70
2018-07-16T16:51:33.841Z,93.30
2018-07-16T16:54:04.303Z,93.60
2018-07-16T16:56:32.877Z,93.60
2018-07-16T16:59:01.391Z,93.70
2018-07-16T17:01:30.027Z,93.50
2018-07-16T17:03:58.593Z,92.70
2018-07-16T17:06:27.077Z,92.60
2018-07-16T17:08:55.679Z,92.50
2018-07-16T17:11:24.387Z,91.30
2018-07-16T17:13:52.993Z,91.10
2018-07-16T17:16:21.556Z,91.20
2018-07-16T17:18:50.233Z,91.40
2018-07-16T17:21:18.803Z,91.80
2018-07-16T17:23:47.468Z,92.30
2018-07-16T17:26:16.363Z,92.70
2018-07-16T17:28:44.892Z,92.60
2018-07-16T17:31:13.527Z,93.40
2018-07-16T17:33:42.069Z,93.20
2018-07-16T17:36:10.699Z,92.80
2018-07-16T17:38:39.251Z,92.30
2018-07-16T17:41:07.823Z,92.00
2018-07-16T17:43:36.421Z,93.50
2018-07-16T17:46:05.121Z,92.80
2018-07-16T17:51:01.898Z,92.10
2018-07-16T17:53:30.444Z,91.70
2018-07-16T17:55:58.979Z,91.40
2018-07-16T17:58:27.485Z,91.60
2018-07-16T18:00:56.059Z,91.70
2018-07-16T18:03:24.575Z,91.70
2018-07-16T18:05:53.080Z,91.80
2018-07-16T18:08:21.543Z,92.60
2018-07-16T18:10:50.147Z,92.30
2018-07-16T18:13:18.710Z,92.70
2018-07-16T18:15:47.206Z,92.80
2018-07-16T18:18:15.707Z,92.60
2018-07-16T18:20:44.266Z,92.70
2018-07-16T18:25:40.984Z,93.10
2018-07-16T18:28:09.511Z,93.40
2018-07-16T18:30:38.083Z,93.10
2018-07-16T18:33:06.755Z,93.10
2018-07-16T18:35:35.373Z,93.20
2018-07-16T18:38:03.879Z,93.50
2018-07-16T18:40:32.378Z,93.80
2018-07-16T18:43:00.895Z,94.00
2018-07-16T18:45:29.355Z,94.10
2018-07-16T18:47:57.887Z,94.20
2018-07-16T18:50:26.488Z,94.10
2018-07-16T18:52:55.073Z,94.20
2018-07-16T18:55:23.654Z,94.30
2018-07-16T19:00:20.390Z,94.40
2018-07-16T19:02:48.946Z,94.60
2018-07-16T19:05:17.497Z,94.20
2018-07-16T19:07:46.050Z,94.30
2018-07-16T19:10:14.585Z,94.30
2018-07-16T19:12:43.127Z,94.40
2018-07-16T19:15:14.074Z,94.40
2018-07-16T19:17:43.194Z,94.30
2018-07-16T19:20:11.774Z,94.30
2018-07-16T19:22:40.320Z,94.60
2018-07-16T19:25:09.019Z,94.40
2018-07-16T19:27:37.508Z,94.20
2018-07-16T19:30:06.530Z,94.10
2018-07-16T19:32:35.068Z,94.10
2018-07-16T19:35:03.668Z,93.80
2018-07-16T19:37:32.196Z,93.80
2018-07-16T19:40:00.730Z,93.90
2018-07-16T19:42:29.321Z,93.70
2018-07-16T19:44:57.877Z,93.80
2018-07-16T19:47:26.322Z,94.50
2018-07-16T19:49:54.848Z,94.10
2018-07-16T19:52:23.374Z,94.20
2018-07-16T19:54:51.917Z,94.40
2018-07-16T19:57:20.382Z,94.10
2018-07-16T19:59:48.909Z,93.80
2018-07-16T20:02:17.416Z,94.00
2018-07-16T20:04:45.978Z,94.00
2018-07-16T20:07:14.507Z,94.00
2018-07-16T20:09:43.132Z,94.30
2018-07-16T20:12:21.667Z,94.30
2018-07-16T20:14:50.312Z,94.20
2018-07-16T20:17:18.826Z,94.10
2018-07-16T20:19:47.296Z,93.80
2018-07-16T20:22:15.850Z,94.00
2018-07-16T20:24:44.441Z,94.10
2018-07-16T20:27:13.016Z,94.30
2018-07-16T20:29:41.874Z,94.40
2018-07-16T20:32:10.408Z,94.30
2018-07-16T20:34:39.502Z,94.40
2018-07-16T20:37:08.631Z,94.50
2018-07-16T20:39:37.259Z,94.50
2018-07-16T20:42:05.824Z,94.40
2018-07-16T20:44:34.460Z,94.40
2018-07-16T20:47:03.044Z,94.20
2018-07-16T20:49:31.558Z,94.30
2018-07-16T20:52:00.136Z,94.30
2018-07-16T20:54:28.667Z,94.10
2018-07-16T20:56:57.292Z,94.20
2018-07-16T20:59:26.335Z,94.00
2018-07-16T21:01:54.934Z,94.20
2018-07-16T21:04:23.448Z,94.30
2018-07-16T21:06:51.995Z,94.40
2018-07-16T21:14:17.383Z,94.40
2018-07-16T21:16:45.955Z,94.10
2018-07-16T21:19:14.523Z,94.10
2018-07-16T21:21:43.003Z,94.10
2018-07-16T21:24:11.523Z,94.00
2018-07-16T21:26:40.091Z,94.10
2018-07-16T21:29:08.687Z,94.10
2018-07-16T21:31:37.242Z,94.10
2018-07-16T21:34:05.755Z,94.10
2018-07-16T21:36:34.306Z,94.10
2018-07-16T21:39:03.079Z,94.30
2018-07-16T21:41:31.629Z,94.30
2018-07-16T21:44:00.300Z,94.10
2018-07-16T21:46:28.786Z,94.20
2018-07-16T21:48:57.335Z,94.60
2018-07-16T21:51:25.855Z,94.80
2018-07-16T21:53:54.482Z,94.50
2018-07-16T21:56:22.963Z,94.40
2018-07-16T21:58:51.526Z,94.20
2018-07-16T22:01:20.067Z,94.10
2018-07-16T22:03:48.611Z,94.60
2018-07-16T22:06:17.085Z,93.90
2018-07-16T22:08:45.886Z,93.90
2018-07-16T22:11:14.462Z,94.30
2018-07-16T22:13:43.078Z,93.90
2018-07-16T22:16:11.710Z,93.90
2018-07-16T22:18:40.160Z,94.40
2018-07-16T22:21:08.771Z,94.80
2018-07-16T22:23:37.272Z,94.90
2018-07-16T22:26:06.066Z,95.10
2018-07-16T22:28:34.634Z,95.20
2018-07-16T22:31:04.066Z,95.10
2018-07-16T22:33:32.550Z,95.20
2018-07-16T22:36:01.110Z,95.50
2018-07-16T22:38:29.650Z,95.70
2018-07-16T22:40:58.264Z,95.70
2018-07-16T22:43:26.766Z,95.60
2018-07-16T22:45:55.370Z,95.40
2018-07-16T22:48:23.862Z,95.50
2018-07-16T22:50:52.394Z,95.60
2018-07-16T22:53:20.956Z,95.50
2018-07-16T22:55:49.519Z,95.50
2018-07-16T22:58:18.114Z,95.40
2018-07-16T23:00:46.610Z,95.30
2018-07-16T23:03:15.199Z,95.50
2018-07-16T23:05:43.978Z,95.10
2018-07-16T23:08:14.994Z,95.20
2018-07-16T23:10:43.726Z,95.00
2018-07-16T23:13:12.304Z,94.90
2018-07-16T23:15:40.824Z,95.10
2018-07-16T23:18:09.334Z,95.10
2018-07-16T23:20:38.290Z,95.10
2018-07-16T23:23:06.815Z,95.00
2018-07-16T23:25:36.356Z,95.00
2018-07-16T23:28:05.074Z,94.90
2018-07-16T23:30:33.574Z,94.60
2018-07-16T23:33:02.552Z,94.70
2018-07-16T23:35:31.030Z,94.80
2018-07-16T23:37:59.538Z,94.80
2018-07-16T23:40:28.090Z,94.60
2018-07-16T23:42:56.682Z,94.40
2018-07-16T23:45:25.355Z,94.30
2018-07-16T23:47:53.891Z,94.20
2018-07-16T23:52:50.679Z,94.00
2018-07-16T23:57:47.381Z,93.80
